createdAt,value
2023-02-11T00:01:35.255Z,46.60
2023-02-11T00:03:39.729Z,43.10
2023-02-11T00:05:42.524Z,43.72
2023-02-11T00:07:45.329Z,41.88
2023-02-11T00:09:48.096Z,43.67
2023-02-11T00:11:50.858Z,41.40
2023-02-11T00:13:53.680Z,42.30
2023-02-11T00:15:58.063Z,40.75
2023-02-11T00:18:00.811Z,41.35
2023-02-11T00:20:07.924Z,46.03
2023-02-11T00:22:11.036Z,42.70
2023-02-11T00:24:13.831Z,40.90
2023-02-11T00:26:19.143Z,41.47
2023-02-11T00:28:22.593Z,42.15
2023-02-11T00:30:25.747Z,38.28
2023-02-11T00:32:29.858Z,41.42
2023-02-11T00:34:32.935Z,41.95
2023-02-11T00:36:41.012Z,39.85
2023-02-11T00:38:44.661Z,45.22
2023-02-11T00:40:47.439Z,43.47
2023-02-11T00:42:50.242Z,41.10
2023-02-11T00:44:53.073Z,46.00
2023-02-11T00:46:55.857Z,44.33
2023-02-11T00:48:58.663Z,40.13
2023-02-11T00:51:01.485Z,43.05
2023-02-11T00:53:05.720Z,41.70
2023-02-11T00:55:09.193Z,46.90
2023-02-11T00:57:12.016Z,41.05
2023-02-11T00:59:14.860Z,42.65
2023-02-11T01:01:20.188Z,50.50
2023-02-11T01:03:23.030Z,42.33
2023-02-11T01:05:26.216Z,43.97
2023-02-11T01:07:29.474Z,45.72
2023-02-11T01:09:33.624Z,41.45
2023-02-11T01:11:36.758Z,40.13
2023-02-11T01:13:40.614Z,41.10
2023-02-11T01:15:43.406Z,39.97
2023-02-11T01:17:46.567Z,41.25
2023-02-11T01:19:49.468Z,42.85
2023-02-11T01:21:52.232Z,47.03
2023-02-11T01:23:58.013Z,43.22
2023-02-11T01:26:02.296Z,40.28
2023-02-11T01:28:05.424Z,40.47
2023-02-11T01:30:10.467Z,42.53
2023-02-11T01:34:16.004Z,42.70
2023-02-11T01:36:18.920Z,42.95
2023-02-11T01:38:24.328Z,39.83
2023-02-11T01:40:28.804Z,44.40
2023-02-11T01:42:33.804Z,39.92
2023-02-11T01:44:39.977Z,43.95
2023-02-11T01:46:43.012Z,39.53
2023-02-11T01:48:50.312Z,39.90
2023-02-11T01:50:58.074Z,44.38
2023-02-11T01:53:21.839Z,41.83
2023-02-11T01:55:47.535Z,40.50
2023-02-11T01:57:56.216Z,38.10
2023-02-11T02:00:05.477Z,36.65
2023-02-11T02:02:22.783Z,40.05
2023-02-11T02:04:31.467Z,35.60
2023-02-11T02:06:36.859Z,42.88
2023-02-11T02:08:44.812Z,39.33
2023-02-11T02:10:49.548Z,33.78
2023-02-11T02:12:54.085Z,38.55
2023-02-11T02:15:28.459Z,35.70
2023-02-11T02:17:41.796Z,38.33
2023-02-11T02:20:12.468Z,35.97
2023-02-11T02:22:47.781Z,35.92
2023-02-11T02:25:17.123Z,35.35
2023-02-11T02:27:30.868Z,38.15
2023-02-11T02:29:54.366Z,33.80
2023-02-11T02:32:27.903Z,37.13
2023-02-11T02:34:38.631Z,37.40
2023-02-11T02:36:48.838Z,36.83
2023-02-11T02:38:54.991Z,37.63
2023-02-11T02:41:02.468Z,37.22
2023-02-11T02:43:06.033Z,32.00
2023-02-11T02:45:12.081Z,31.92
2023-02-11T02:47:14.852Z,31.42
2023-02-11T02:49:19.173Z,33.75
2023-02-11T02:51:47.659Z,31.30
2023-02-11T02:54:00.157Z,29.48
2023-02-11T02:56:10.588Z,31.63
2023-02-11T02:58:47.213Z,32.20
2023-02-11T03:00:59.252Z,34.83
2023-02-11T03:03:17.606Z,42.28
2023-02-11T03:05:27.777Z,31.33
2023-02-11T03:07:41.077Z,31.92
2023-02-11T03:09:49.392Z,34.88
2023-02-11T03:11:52.310Z,32.40
2023-02-11T03:13:56.288Z,32.40
2023-02-11T03:16:03.356Z,31.93
2023-02-11T03:18:08.519Z,36.05
2023-02-11T03:20:15.949Z,31.95
2023-02-11T03:22:23.676Z,40.63
2023-02-11T03:24:31.603Z,34.15
2023-02-11T03:26:38.936Z,40.42
2023-02-11T03:28:48.855Z,35.28
2023-02-11T03:30:58.300Z,36.05
2023-02-11T03:33:08.039Z,35.47
2023-02-11T03:35:16.490Z,37.20
2023-02-11T03:37:24.592Z,35.97
2023-02-11T03:39:34.268Z,36.17
2023-02-11T03:41:38.130Z,34.58
2023-02-11T03:43:45.080Z,35.92
2023-02-11T03:45:51.062Z,40.13
2023-02-11T03:47:58.681Z,35.35
2023-02-11T03:50:05.552Z,40.20
2023-02-11T03:52:11.291Z,39.35
2023-02-11T03:54:21.446Z,41.17
2023-02-11T03:56:28.286Z,43.20
2023-02-11T03:58:31.582Z,45.83
2023-02-11T04:00:37.785Z,38.53
2023-02-11T04:02:41.689Z,40.10
2023-02-11T04:04:45.068Z,41.85
2023-02-11T04:06:47.855Z,45.63
2023-02-11T04:08:50.664Z,39.92
2023-02-11T04:10:54.757Z,38.28
2023-02-11T04:12:57.647Z,38.40
2023-02-11T04:15:00.403Z,40.50
2023-02-11T04:17:03.680Z,42.58
2023-02-11T04:19:06.384Z,41.80
2023-02-11T04:21:09.245Z,38.75
2023-02-11T04:23:12.057Z,44.35
2023-02-11T04:25:14.878Z,44.40
2023-02-11T04:27:18.944Z,40.45
2023-02-11T04:29:21.797Z,43.40
2023-02-11T04:31:24.759Z,43.17
2023-02-11T04:33:27.701Z,41.45
2023-02-11T04:35:30.409Z,43.55
2023-02-11T04:37:33.401Z,42.38
2023-02-11T04:39:36.411Z,40.97
2023-02-11T04:41:39.159Z,44.30
2023-02-11T04:43:43.253Z,38.78
2023-02-11T04:45:46.065Z,43.45
2023-02-11T04:47:48.854Z,43.65
2023-02-11T04:49:51.798Z,39.70
2023-02-11T04:51:54.620Z,39.22
2023-02-11T04:53:57.391Z,40.20
2023-02-11T04:56:00.284Z,41.00
2023-02-11T04:58:03.007Z,36.25
2023-02-11T05:00:08.256Z,40.60
2023-02-11T05:02:11.047Z,41.58
2023-02-11T05:04:13.881Z,39.10
2023-02-11T05:06:16.743Z,37.63
2023-02-11T05:08:19.517Z,43.70
2023-02-11T05:10:22.321Z,36.20
2023-02-11T05:12:25.123Z,40.13
2023-02-11T05:14:27.989Z,39.97
2023-02-11T05:16:32.356Z,44.15
2023-02-11T05:18:35.096Z,39.20
2023-02-11T05:20:39.154Z,37.90
2023-02-11T05:22:41.994Z,42.63
2023-02-11T05:24:44.742Z,41.30
2023-02-11T05:26:47.591Z,42.38
2023-02-11T05:28:50.371Z,40.17
2023-02-11T05:30:53.198Z,43.67
2023-02-11T05:32:57.606Z,39.10
2023-02-11T05:35:00.427Z,42.58
2023-02-11T05:37:03.247Z,41.95
2023-02-11T05:39:06.055Z,41.13
2023-02-11T05:41:08.912Z,44.85
2023-02-11T05:43:11.658Z,45.83
2023-02-11T05:45:14.527Z,40.22
2023-02-11T05:47:17.278Z,40.03
2023-02-11T05:49:21.473Z,43.47
2023-02-11T05:51:25.214Z,47.90
2023-02-11T05:53:27.985Z,42.78
2023-02-11T05:55:30.871Z,44.33
2023-02-11T05:57:33.615Z,42.28
2023-02-11T05:59:36.352Z,41.65
2023-02-11T06:01:39.157Z,37.15
2023-02-11T06:03:42.047Z,41.35
2023-02-11T06:05:46.762Z,38.88
2023-02-11T06:07:49.596Z,50.20
2023-02-11T06:09:52.438Z,43.60
2023-02-11T06:11:55.243Z,43.58
2023-02-11T06:13:58.016Z,41.80
2023-02-11T06:16:02.660Z,40.63
2023-02-11T06:18:06.230Z,45.35
2023-02-11T06:20:10.697Z,39.08
2023-02-11T06:22:14.857Z,44.20
2023-02-11T06:24:33.095Z,42.63
2023-02-11T06:26:40.450Z,38.45
2023-02-11T06:28:43.257Z,42.83
2023-02-11T06:30:46.381Z,41.92
2023-02-11T06:32:49.344Z,38.38
2023-02-11T06:34:52.201Z,43.90
2023-02-11T06:36:54.991Z,41.22
2023-02-11T06:38:59.181Z,40.55
2023-02-11T06:41:01.923Z,44.85
2023-02-11T06:43:04.656Z,39.17
2023-02-11T06:45:09.320Z,42.72
2023-02-11T06:47:12.195Z,38.30
2023-02-11T06:49:15.384Z,40.28
2023-02-11T06:51:18.437Z,40.92
2023-02-11T06:53:21.373Z,37.60
2023-02-11T06:55:25.489Z,41.00
2023-02-11T06:57:28.208Z,45.63
2023-02-11T06:59:30.969Z,41.72
2023-02-11T07:01:33.929Z,39.92
2023-02-11T07:03:38.507Z,36.78
2023-02-11T07:05:43.450Z,38.72
2023-02-11T07:09:48.905Z,37.72
2023-02-11T07:11:53.138Z,44.08
2023-02-11T07:13:57.915Z,40.58
2023-02-11T07:16:00.732Z,36.25
2023-02-11T07:18:04.095Z,40.03
2023-02-11T07:20:07.659Z,39.22
2023-02-11T07:22:10.450Z,39.22
2023-02-11T07:24:14.275Z,37.38
2023-02-11T07:26:18.492Z,39.08
2023-02-11T07:28:22.654Z,39.70
2023-02-11T07:30:25.488Z,38.22
2023-02-11T07:32:28.311Z,35.60
2023-02-11T07:34:31.120Z,39.13
2023-02-11T07:36:34.140Z,33.22
2023-02-11T07:38:37.837Z,34.33
2023-02-11T07:40:40.746Z,35.97
2023-02-11T07:42:43.557Z,39.30
2023-02-11T07:44:50.343Z,36.35
2023-02-11T07:46:53.377Z,39.15
2023-02-11T07:48:56.568Z,35.60
2023-02-11T07:51:06.794Z,33.40
2023-02-11T07:53:09.512Z,35.75
2023-02-11T07:55:12.463Z,30.95
2023-02-11T07:57:15.319Z,32.63
2023-02-11T07:59:18.055Z,38.63
2023-02-11T08:01:25.426Z,36.17
2023-02-11T08:03:28.468Z,38.25
2023-02-11T08:05:31.416Z,32.17
2023-02-11T08:07:34.273Z,36.60
2023-02-11T08:09:36.982Z,35.00
2023-02-11T08:11:39.875Z,36.35
2023-02-11T08:13:43.465Z,31.80
2023-02-11T08:15:46.264Z,36.83
2023-02-11T08:17:50.471Z,33.70
2023-02-11T08:19:53.274Z,34.72
2023-02-11T08:21:56.912Z,34.10
2023-02-11T08:23:59.756Z,36.42
2023-02-11T08:26:03.397Z,32.47
2023-02-11T08:28:06.248Z,34.10
2023-02-11T08:30:10.180Z,32.13
2023-02-11T08:32:12.996Z,29.13
2023-02-11T08:34:19.237Z,36.97
2023-02-11T08:36:24.275Z,36.80
2023-02-11T08:38:27.127Z,30.08
2023-02-11T08:40:29.954Z,30.92
2023-02-11T08:42:32.707Z,30.58
2023-02-11T08:44:35.491Z,32.58
2023-02-11T08:46:38.229Z,30.60
2023-02-11T08:48:41.059Z,28.00
2023-02-11T08:50:45.181Z,27.70
2023-02-11T08:52:47.962Z,30.10
2023-02-11T08:54:50.816Z,29.77
2023-02-11T08:56:53.706Z,33.08
2023-02-11T08:58:56.538Z,29.50
2023-02-11T09:00:59.820Z,30.10
2023-02-11T09:03:02.816Z,27.42
2023-02-11T09:05:05.967Z,33.35
2023-02-11T09:07:10.172Z,28.17
2023-02-11T09:09:14.861Z,28.85
2023-02-11T09:11:18.955Z,25.77
2023-02-11T09:13:21.694Z,29.88
2023-02-11T09:15:24.594Z,28.50
2023-02-11T09:17:33.932Z,27.50
2023-02-11T09:19:36.866Z,29.73
2023-02-11T09:21:39.851Z,26.30
2023-02-11T09:23:44.814Z,28.55
2023-02-11T09:27:51.346Z,31.13
2023-02-11T09:29:54.106Z,24.10
2023-02-11T09:31:57.014Z,33.50
2023-02-11T09:34:01.956Z,27.92
2023-02-11T09:36:06.144Z,24.63
2023-02-11T09:38:08.887Z,27.60
2023-02-11T09:40:13.944Z,26.45
2023-02-11T09:42:38.534Z,26.58
2023-02-11T09:44:41.645Z,22.77
2023-02-11T09:46:47.880Z,22.77
2023-02-11T09:48:53.444Z,25.58
2023-02-11T09:50:59.724Z,26.25
2023-02-11T09:53:05.663Z,25.52
2023-02-11T09:55:19.764Z,23.05
2023-02-11T09:57:28.805Z,23.13
2023-02-11T09:59:32.066Z,22.23
2023-02-11T10:01:42.839Z,21.63
2023-02-11T10:04:06.470Z,21.85
2023-02-11T10:06:30.659Z,24.55
2023-02-11T10:08:42.543Z,24.00
2023-02-11T10:10:53.159Z,24.45
2023-02-11T10:13:16.078Z,24.50
2023-02-11T10:15:37.551Z,21.95
2023-02-11T10:17:51.272Z,21.73
2023-02-11T10:20:06.818Z,27.15
2023-02-11T10:22:19.241Z,25.27
2023-02-11T10:24:23.170Z,25.20
2023-02-11T10:26:32.335Z,28.00
2023-02-11T10:28:35.799Z,24.80
2023-02-11T10:30:42.550Z,23.08
2023-02-11T10:32:49.576Z,20.45
2023-02-11T10:34:56.984Z,26.33
2023-02-11T10:37:00.325Z,24.65
2023-02-11T10:39:03.559Z,23.02
2023-02-11T10:41:06.505Z,23.63
2023-02-11T10:43:14.664Z,21.17
2023-02-11T10:45:23.582Z,24.08
2023-02-11T10:47:29.589Z,25.08
2023-02-11T10:49:38.392Z,25.40
2023-02-11T10:51:41.219Z,25.83
2023-02-11T10:53:44.871Z,23.52
2023-02-11T10:55:53.458Z,23.50
2023-02-11T10:57:59.613Z,23.00
2023-02-11T11:00:09.457Z,20.77
2023-02-11T11:02:24.523Z,22.27
2023-02-11T11:04:41.696Z,24.23
2023-02-11T11:06:44.593Z,22.38
2023-02-11T11:08:49.084Z,23.02
2023-02-11T11:11:04.883Z,24.98
2023-02-11T11:13:25.490Z,30.75
2023-02-11T11:15:31.567Z,25.02
2023-02-11T11:17:34.515Z,26.90
2023-02-11T11:19:39.159Z,24.80
2023-02-11T11:21:44.357Z,21.98
2023-02-11T11:23:53.793Z,25.73
2023-02-11T11:26:05.095Z,24.58
2023-02-11T11:28:19.885Z,28.70
2023-02-11T11:30:26.714Z,27.42
2023-02-11T11:32:33.289Z,35.15
2023-02-11T11:34:39.759Z,29.17
2023-02-11T11:36:42.636Z,28.45
2023-02-11T11:38:50.134Z,32.72
2023-02-11T11:41:14.557Z,31.00
2023-02-11T11:43:23.035Z,36.40
2023-02-11T11:45:27.590Z,31.77
2023-02-11T11:47:37.000Z,36.17
2023-02-11T11:49:44.951Z,35.85
2023-02-11T11:51:56.020Z,29.48
2023-02-11T11:54:02.334Z,28.45
2023-02-11T11:56:07.882Z,32.03
2023-02-11T11:58:16.380Z,37.90
2023-02-11T12:00:22.676Z,34.22
2023-02-11T12:02:51.946Z,35.58
2023-02-11T12:05:02.600Z,30.90
2023-02-11T12:07:18.801Z,35.75
2023-02-11T12:09:29.828Z,26.83
2023-02-11T12:11:42.730Z,32.38
2023-02-11T12:13:57.905Z,30.95
2023-02-11T12:16:11.310Z,25.15
2023-02-11T12:18:32.806Z,27.85
2023-02-11T12:20:44.530Z,28.70
2023-02-11T12:23:02.080Z,28.98
2023-02-11T12:25:27.236Z,29.55
2023-02-11T12:27:48.904Z,37.00
2023-02-11T12:30:04.308Z,27.30
2023-02-11T12:34:42.899Z,24.98
2023-02-11T12:37:02.817Z,30.70
2023-02-11T12:39:18.806Z,27.52
2023-02-11T12:41:53.324Z,26.83
2023-02-11T12:43:56.193Z,26.88
2023-02-11T12:46:23.947Z,22.88
2023-02-11T12:48:46.413Z,26.67
2023-02-11T12:50:59.219Z,23.38
2023-02-11T12:53:21.346Z,33.00
2023-02-11T12:55:26.807Z,30.15
2023-02-11T12:57:33.292Z,28.05
2023-02-11T12:59:48.736Z,23.80
2023-02-11T13:04:02.000Z,28.23
2023-02-11T13:06:09.343Z,25.90
2023-02-11T13:08:16.948Z,26.35
2023-02-11T13:10:30.935Z,27.73
2023-02-11T13:12:56.134Z,28.52
2023-02-11T13:15:04.070Z,26.67
2023-02-11T13:17:18.764Z,23.25
2023-02-11T13:19:27.785Z,25.73
2023-02-11T13:21:42.000Z,26.20
2023-02-11T13:23:51.089Z,26.92
2023-02-11T13:26:00.431Z,27.35
2023-02-11T13:28:23.698Z,24.63
2023-02-11T13:30:32.412Z,25.65
2023-02-11T13:33:06.517Z,28.90
2023-02-11T13:35:29.268Z,26.17
2023-02-11T13:37:38.100Z,27.35
2023-02-11T13:39:40.927Z,23.52
2023-02-11T13:41:45.099Z,25.08
2023-02-11T13:43:59.832Z,24.08
2023-02-11T13:46:04.510Z,24.05
2023-02-11T13:50:24.801Z,24.17
2023-02-11T13:52:30.607Z,23.60
2023-02-11T13:54:39.018Z,22.67
2023-02-11T13:56:44.037Z,23.65
2023-02-11T13:58:48.910Z,22.92
2023-02-11T14:03:41.687Z,19.50
2023-02-11T14:06:30.327Z,19.70
2023-02-11T14:08:50.503Z,21.42
2023-02-11T14:10:56.762Z,22.58
2023-02-11T14:13:22.939Z,22.48
2023-02-11T14:15:28.726Z,21.60
2023-02-11T14:17:33.861Z,23.08
2023-02-11T14:19:38.460Z,20.90
2023-02-11T14:21:44.061Z,22.38
2023-02-11T14:23:48.341Z,24.83
2023-02-11T14:26:26.797Z,20.90
2023-02-11T14:28:34.170Z,23.10
2023-02-11T14:30:47.411Z,24.52
2023-02-11T14:33:07.174Z,25.05
2023-02-11T14:35:18.241Z,20.92
2023-02-11T14:37:33.926Z,19.42
2023-02-11T14:39:56.941Z,19.08
2023-02-11T14:42:03.515Z,19.17
2023-02-11T14:44:14.065Z,23.15
2023-02-11T14:46:18.703Z,24.35
2023-02-11T14:48:28.335Z,20.15
2023-02-11T14:50:38.739Z,18.02
2023-02-11T14:52:44.164Z,20.85
2023-02-11T14:54:49.584Z,19.42
2023-02-11T14:57:11.109Z,18.30
2023-02-11T14:59:18.830Z,20.05
2023-02-11T15:01:29.040Z,17.33
2023-02-11T15:03:34.879Z,19.67
2023-02-11T15:05:37.867Z,19.73
2023-02-11T15:07:45.393Z,15.90
2023-02-11T15:09:51.163Z,15.23
2023-02-11T15:11:55.116Z,16.42
2023-02-11T15:14:02.744Z,14.47
2023-02-11T15:16:09.161Z,19.00
2023-02-11T15:18:22.630Z,16.02
2023-02-11T15:20:28.266Z,13.35
2023-02-11T15:22:36.775Z,17.48
2023-02-11T15:24:40.439Z,18.83
2023-02-11T15:26:43.264Z,17.35
2023-02-11T15:28:52.034Z,18.15
2023-02-11T15:31:01.684Z,22.92
2023-02-11T15:33:06.812Z,17.65
2023-02-11T15:35:13.594Z,17.55
2023-02-11T15:37:21.831Z,19.83
2023-02-11T15:39:32.452Z,19.65
2023-02-11T15:41:37.664Z,16.55
2023-02-11T15:43:45.530Z,21.35
2023-02-11T15:45:57.931Z,22.70
2023-02-11T15:48:09.109Z,23.65
2023-02-11T15:50:21.877Z,23.17
2023-02-11T15:52:27.406Z,20.83
2023-02-11T15:54:32.069Z,20.08
2023-02-11T15:56:43.254Z,17.60
2023-02-11T15:58:48.790Z,19.67
2023-02-11T16:00:59.544Z,20.33
2023-02-11T16:03:04.208Z,19.63
2023-02-11T16:05:10.345Z,21.70
2023-02-11T16:07:39.630Z,18.92
2023-02-11T16:09:43.815Z,17.25
2023-02-11T16:11:57.982Z,18.98
2023-02-11T16:14:04.570Z,18.45
2023-02-11T16:16:20.682Z,20.30
2023-02-11T16:18:39.377Z,20.08
2023-02-11T16:20:48.262Z,22.80
2023-02-11T16:22:51.271Z,19.13
2023-02-11T16:24:58.010Z,19.45
2023-02-11T16:27:02.658Z,18.95
2023-02-11T16:29:13.176Z,22.00
2023-02-11T16:31:16.287Z,18.88
2023-02-11T16:33:19.113Z,18.35
2023-02-11T16:35:23.343Z,19.65
2023-02-11T16:37:26.619Z,21.00
2023-02-11T16:39:29.434Z,17.30
2023-02-11T16:41:32.259Z,17.25
2023-02-11T16:43:35.076Z,18.25
2023-02-11T16:45:38.634Z,17.00
2023-02-11T16:47:42.421Z,20.85
2023-02-11T16:49:45.365Z,21.08
2023-02-11T16:51:52.728Z,21.85
2023-02-11T16:53:55.598Z,20.67
2023-02-11T16:55:58.329Z,20.15
2023-02-11T16:58:01.067Z,17.98
2023-02-11T17:00:06.302Z,20.52
2023-02-11T17:02:13.874Z,22.13
2023-02-11T17:04:20.187Z,19.85
2023-02-11T17:06:22.981Z,20.73
2023-02-11T17:08:27.269Z,32.25
2023-02-11T17:10:30.774Z,30.77
2023-02-11T17:12:33.580Z,33.20
2023-02-11T17:14:36.373Z,25.70
2023-02-11T17:16:39.292Z,25.55
2023-02-11T17:18:42.120Z,29.10
2023-02-11T17:20:44.949Z,21.23
2023-02-11T17:22:47.772Z,24.13
2023-02-11T17:24:51.930Z,21.27
2023-02-11T17:26:54.863Z,24.00
2023-02-11T17:28:57.652Z,24.80
2023-02-11T17:31:00.917Z,21.85
2023-02-11T17:33:03.924Z,21.20
2023-02-11T17:35:07.527Z,18.00
2023-02-11T17:37:10.304Z,25.27
2023-02-11T17:39:13.659Z,21.00
2023-02-11T17:41:17.844Z,23.10
2023-02-11T17:43:20.662Z,22.13
2023-02-11T17:45:23.602Z,22.05
2023-02-11T17:47:26.506Z,20.95
2023-02-11T17:49:29.279Z,19.17
2023-02-11T17:51:34.000Z,22.35
2023-02-11T17:53:36.799Z,20.90
2023-02-11T17:55:39.525Z,22.90
2023-02-11T17:57:44.209Z,18.58
2023-02-11T17:59:47.177Z,25.55
2023-02-11T18:01:50.072Z,21.80
2023-02-11T18:03:52.928Z,19.98
2023-02-11T18:06:00.738Z,18.95
2023-02-11T18:08:04.106Z,17.63
2023-02-11T18:10:08.071Z,18.05
2023-02-11T18:12:11.930Z,20.55
2023-02-11T18:14:16.118Z,19.20
2023-02-11T18:16:19.055Z,18.70
2023-02-11T18:18:21.996Z,17.50
2023-02-11T18:20:24.805Z,24.17
2023-02-11T18:22:27.936Z,19.90
2023-02-11T18:24:31.055Z,19.98
2023-02-11T18:26:33.900Z,18.63
2023-02-11T18:28:36.831Z,20.73
2023-02-11T18:30:41.179Z,16.08
2023-02-11T18:32:44.538Z,17.38
2023-02-11T18:34:47.354Z,16.88
2023-02-11T18:36:50.344Z,20.75
2023-02-11T18:38:54.189Z,15.57
2023-02-11T18:40:58.562Z,20.67
2023-02-11T18:43:01.313Z,17.10
2023-02-11T18:45:05.164Z,19.35
2023-02-11T18:47:09.314Z,19.13
2023-02-11T18:49:13.143Z,20.98
2023-02-11T18:51:18.634Z,18.53
2023-02-11T18:53:21.842Z,20.95
2023-02-11T18:55:25.882Z,20.33
2023-02-11T18:57:28.705Z,21.33
2023-02-11T18:59:31.655Z,23.23
2023-02-11T19:01:34.666Z,18.63
2023-02-11T19:03:38.880Z,18.85
2023-02-11T19:05:42.658Z,22.05
2023-02-11T19:07:45.481Z,24.70
2023-02-11T19:09:48.233Z,20.33
2023-02-11T19:11:51.173Z,18.42
2023-02-11T19:13:53.944Z,20.20
2023-02-11T19:15:56.685Z,19.88
2023-02-11T19:17:59.513Z,18.30
2023-02-11T19:20:05.961Z,21.02
2023-02-11T19:22:10.785Z,19.85
2023-02-11T19:26:18.220Z,20.65
2023-02-11T19:28:22.068Z,16.92
2023-02-11T19:30:24.901Z,16.75
2023-02-11T19:32:28.052Z,20.65
2023-02-11T19:34:30.962Z,19.08
2023-02-11T19:36:35.447Z,21.20
2023-02-11T19:38:39.128Z,20.83
2023-02-11T19:40:41.936Z,20.60
2023-02-11T19:42:44.844Z,27.30
2023-02-11T19:44:47.659Z,28.38
2023-02-11T19:46:52.779Z,20.58
2023-02-11T19:48:55.844Z,21.95
2023-02-11T19:50:58.700Z,19.13
2023-02-11T19:53:03.046Z,23.50
2023-02-11T19:55:06.474Z,19.02
2023-02-11T19:57:09.247Z,20.02
2023-02-11T19:59:12.453Z,19.27
2023-02-11T20:01:17.656Z,18.75
2023-02-11T20:03:20.589Z,19.70
2023-02-11T20:05:23.556Z,17.13
2023-02-11T20:07:26.351Z,16.38
2023-02-11T20:09:31.157Z,23.95
2023-02-11T20:11:34.548Z,23.85
2023-02-11T20:13:38.472Z,19.77
2023-02-11T20:15:41.285Z,20.35
2023-02-11T20:17:45.355Z,22.58
2023-02-11T20:19:48.156Z,23.13
2023-02-11T20:21:53.565Z,22.95
2023-02-11T20:23:56.405Z,25.60
2023-02-11T20:26:05.279Z,23.30
2023-02-11T20:28:08.021Z,26.13
2023-02-11T20:30:11.621Z,25.30
2023-02-11T20:32:15.638Z,22.35
2023-02-11T20:34:18.870Z,25.52
2023-02-11T20:36:23.900Z,23.40
2023-02-11T20:38:27.587Z,25.30
2023-02-11T20:40:30.374Z,23.75
2023-02-11T20:42:34.499Z,25.75
2023-02-11T20:44:37.628Z,23.38
2023-02-11T20:46:42.426Z,26.48
2023-02-11T20:50:48.417Z,27.52
2023-02-11T20:52:51.275Z,26.75
2023-02-11T20:54:54.071Z,24.40
2023-02-11T20:56:58.128Z,24.67
2023-02-11T20:59:03.806Z,24.23
2023-02-11T21:01:10.384Z,25.25
2023-02-11T21:03:13.279Z,21.30
2023-02-11T21:05:16.049Z,24.90
2023-02-11T21:07:19.364Z,23.50
2023-02-11T21:09:23.909Z,25.73
2023-02-11T21:11:26.807Z,25.40
2023-02-11T21:13:29.650Z,22.77
2023-02-11T21:15:33.763Z,28.83
2023-02-11T21:17:36.601Z,29.70
2023-02-11T21:19:39.481Z,27.33
2023-02-11T21:21:42.510Z,26.13
2023-02-11T21:23:45.338Z,24.75
2023-02-11T21:25:48.471Z,21.95
2023-02-11T21:27:51.277Z,28.08
2023-02-11T21:29:54.919Z,27.17
2023-02-11T21:31:59.102Z,29.17
2023-02-11T21:34:01.913Z,27.83
2023-02-11T21:36:07.689Z,28.17
2023-02-11T21:38:10.493Z,32.17
2023-02-11T21:40:14.847Z,30.95
2023-02-11T21:42:17.665Z,26.13
2023-02-11T21:44:20.476Z,29.33
2023-02-11T21:46:23.633Z,25.92
2023-02-11T21:48:28.307Z,27.60
2023-02-11T21:50:31.093Z,28.85
2023-02-11T21:52:33.895Z,29.50
2023-02-11T21:54:36.726Z,31.48
2023-02-11T21:56:40.541Z,27.70
2023-02-11T21:58:43.969Z,26.15
2023-02-11T22:00:46.783Z,26.83
2023-02-11T22:02:49.929Z,25.58
2023-02-11T22:04:54.145Z,25.23
2023-02-11T22:06:56.963Z,28.75
2023-02-11T22:09:03.026Z,27.88
2023-02-11T22:11:07.064Z,26.92
2023-02-11T22:13:09.868Z,26.63
2023-02-11T22:15:12.965Z,25.92
2023-02-11T22:17:15.782Z,32.90
2023-02-11T22:19:18.907Z,29.17
2023-02-11T22:21:23.926Z,24.38
2023-02-11T22:23:26.831Z,28.98
2023-02-11T22:25:29.620Z,29.33
2023-02-11T22:27:32.465Z,24.65
2023-02-11T22:29:35.311Z,28.27
2023-02-11T22:31:38.271Z,27.92
2023-02-11T22:33:41.729Z,29.38
2023-02-11T22:35:44.517Z,25.23
2023-02-11T22:37:48.673Z,25.13
2023-02-11T22:39:51.441Z,24.83
2023-02-11T22:41:56.428Z,27.35
2023-02-11T22:43:59.487Z,25.20
2023-02-11T22:46:03.308Z,24.30
2023-02-11T22:48:06.636Z,25.13
2023-02-11T22:50:09.995Z,28.15
2023-02-11T22:52:12.943Z,25.88
2023-02-11T22:54:18.421Z,26.25
2023-02-11T22:56:22.053Z,27.98
2023-02-11T22:58:25.681Z,29.75
2023-02-11T23:00:32.455Z,29.00
2023-02-11T23:02:35.294Z,28.88
2023-02-11T23:04:38.127Z,28.13
2023-02-11T23:06:41.086Z,26.08
2023-02-11T23:08:44.453Z,29.20
2023-02-11T23:10:49.220Z,27.75
2023-02-11T23:12:51.939Z,24.92
2023-02-11T23:14:54.724Z,26.38
2023-02-11T23:16:57.530Z,28.27
2023-02-11T23:19:01.507Z,35.15
2023-02-11T23:21:06.626Z,28.50
2023-02-11T23:23:09.619Z,27.38
2023-02-11T23:25:12.417Z,27.55
2023-02-11T23:27:16.572Z,29.05
2023-02-11T23:29:19.380Z,30.08
2023-02-11T23:31:24.379Z,30.15
2023-02-11T23:33:27.311Z,26.85
2023-02-11T23:35:30.155Z,29.15
2023-02-11T23:37:32.908Z,32.03
2023-02-11T23:39:35.953Z,31.45
2023-02-11T23:41:38.707Z,29.98
2023-02-11T23:43:42.848Z,32.78
2023-02-11T23:45:45.588Z,30.45
2023-02-11T23:47:48.510Z,27.02
2023-02-11T23:49:51.324Z,32.92
2023-02-11T23:51:54.126Z,28.38
2023-02-11T23:53:57.051Z,28.80
2023-02-11T23:55:59.846Z,31.48
2023-02-11T23:58:02.751Z,31.88
